createdAt,value
2023-05-04T00:02:08.294Z,100413.64
2023-05-04T00:04:42.397Z,100416.30
2023-05-04T00:07:14.658Z,100421.47
2023-05-04T00:09:46.839Z,100417.09
2023-05-04T00:12:19.147Z,100419.77
2023-05-04T00:14:51.262Z,100421.62
2023-05-04T00:17:23.362Z,100415.69
2023-05-04T00:19:55.752Z,100420.95
2023-05-04T00:22:28.124Z,100424.46
2023-05-04T00:25:00.264Z,100426.13
2023-05-04T00:27:35.205Z,100426.16
2023-05-04T00:30:08.798Z,100427.90
2023-05-04T00:32:41.298Z,100426.16
2023-05-04T00:35:13.579Z,100431.49
2023-05-04T00:37:46.673Z,100434.09
2023-05-04T00:40:18.619Z,100435.92
2023-05-04T00:42:50.921Z,100441.31
2023-05-04T00:45:23.298Z,100433.64
2023-05-04T00:47:56.160Z,100433.74
2023-05-04T00:50:29.825Z,100439.03
2023-05-04T00:53:04.915Z,100436.49
2023-05-04T00:55:41.247Z,100437.33
2023-05-04T00:58:13.715Z,100439.97
2023-05-04T01:00:46.173Z,100437.40
2023-05-04T01:03:18.710Z,100436.49
2023-05-04T01:06:08.344Z,100438.20
2023-05-04T01:08:45.935Z,100435.59
2023-05-04T01:11:21.518Z,100438.38
2023-05-04T01:13:54.567Z,100443.73
2023-05-04T01:16:26.633Z,100450.82
2023-05-04T01:18:58.684Z,100447.48
2023-05-04T01:21:31.651Z,100451.96
2023-05-04T01:24:03.817Z,100458.02
2023-05-04T01:26:41.831Z,100454.57
2023-05-04T01:29:16.934Z,100458.08
2023-05-04T01:31:51.085Z,100463.30
2023-05-04T01:34:25.057Z,100464.20
2023-05-04T01:36:59.059Z,100463.30
2023-05-04T01:39:31.478Z,100459.88
2023-05-04T01:42:07.076Z,100465.27
2023-05-04T01:44:39.578Z,100461.08
2023-05-04T01:47:11.851Z,100462.82
2023-05-04T01:49:44.036Z,100465.46
2023-05-04T01:52:16.240Z,100468.88
2023-05-04T01:54:48.805Z,100467.06
2023-05-04T01:57:20.990Z,100470.45
2023-05-04T01:59:53.079Z,100471.25
2023-05-04T02:02:25.823Z,100475.53
2023-05-04T02:04:57.880Z,100474.63
2023-05-04T02:07:30.073Z,100477.20
2023-05-04T02:10:02.899Z,100478.06
2023-05-04T02:12:35.867Z,100481.41
2023-05-04T02:15:08.764Z,100476.97
2023-05-04T02:17:41.014Z,100486.42
2023-05-04T02:20:13.734Z,100486.49
2023-05-04T02:22:47.410Z,100493.41
2023-05-04T02:25:20.216Z,100495.12
2023-05-04T02:27:52.239Z,100495.95
2023-05-04T02:30:24.689Z,100497.48
2023-05-04T02:32:56.881Z,100498.13
2023-05-04T02:35:29.037Z,100495.27
2023-05-04T02:38:01.320Z,100497.59
2023-05-04T02:40:33.994Z,100496.52
2023-05-04T02:43:06.042Z,100495.53
2023-05-04T02:45:39.664Z,100499.70
2023-05-04T02:48:12.108Z,100500.39
2023-05-04T02:50:46.626Z,100499.37
2023-05-04T02:53:18.192Z,100506.98
2023-05-04T02:55:49.948Z,100504.63
2023-05-04T02:58:22.344Z,100502.97
2023-05-04T03:00:57.760Z,100509.70
2023-05-04T03:03:30.625Z,100506.97
2023-05-04T03:06:03.520Z,100508.52
2023-05-04T03:08:36.312Z,100512.68
2023-05-04T03:11:08.737Z,100510.73
2023-05-04T03:13:41.717Z,100514.89
2023-05-04T03:16:13.903Z,100522.45
2023-05-04T03:18:46.488Z,100524.86
2023-05-04T03:21:19.091Z,100522.91
2023-05-04T03:23:52.842Z,100523.48
2023-05-04T03:26:25.839Z,100520.62
2023-05-04T03:28:58.445Z,100516.09
2023-05-04T03:31:31.060Z,100530.70
2023-05-04T03:34:03.775Z,100527.09
2023-05-04T03:36:36.523Z,100535.58
2023-05-04T03:39:09.374Z,100530.05
2023-05-04T03:41:41.949Z,100536.63
2023-05-04T03:44:14.198Z,100537.19
2023-05-04T03:46:46.317Z,100542.06
2023-05-04T03:49:18.631Z,100540.91
2023-05-04T03:51:50.869Z,100538.88
2023-05-04T03:54:23.420Z,100535.98
2023-05-04T03:56:55.967Z,100544.48
2023-05-04T03:59:28.438Z,100540.70
2023-05-04T04:02:01.600Z,100545.66
2023-05-04T04:04:34.400Z,100551.44
2023-05-04T04:07:07.106Z,100557.16
2023-05-04T04:09:39.567Z,100546.39
2023-05-04T04:12:11.770Z,100545.27
2023-05-04T04:14:44.223Z,100546.86
2023-05-04T04:17:16.971Z,100548.31
2023-05-04T04:19:49.563Z,100556.70
2023-05-04T04:22:22.185Z,100559.02
2023-05-04T04:24:54.669Z,100559.59
2023-05-04T04:27:26.829Z,100557.53
2023-05-04T04:29:59.569Z,100558.23
2023-05-04T04:32:34.296Z,100564.13
2023-05-04T04:35:07.080Z,100571.16
2023-05-04T04:37:39.346Z,100563.72
2023-05-04T04:40:13.228Z,100568.70
2023-05-04T04:42:45.680Z,100562.36
2023-05-04T04:45:18.126Z,100562.20
2023-05-04T04:47:50.489Z,100563.70
2023-05-04T04:50:22.828Z,100569.58
2023-05-04T04:52:55.490Z,100570.30
2023-05-04T04:55:27.907Z,100571.83
2023-05-04T04:58:01.238Z,100573.41
2023-05-04T05:00:33.431Z,100572.37
2023-05-04T05:03:06.080Z,100571.33
2023-05-04T05:05:38.424Z,100578.17
2023-05-04T05:08:10.673Z,100573.58
2023-05-04T05:10:44.094Z,100570.67
2023-05-04T05:13:16.949Z,100572.08
2023-05-04T05:15:49.450Z,100565.56
2023-05-04T05:18:22.300Z,100572.21
2023-05-04T05:20:54.769Z,100571.88
2023-05-04T05:23:27.019Z,100574.20
2023-05-04T05:26:01.321Z,100577.47
2023-05-04T05:28:33.745Z,100578.92
2023-05-04T05:31:07.163Z,100575.14
2023-05-04T05:33:42.383Z,100567.93
2023-05-04T05:36:15.122Z,100570.20
2023-05-04T05:38:49.741Z,100572.55
2023-05-04T05:41:22.841Z,100578.55
2023-05-04T05:43:55.370Z,100575.72
2023-05-04T05:46:28.994Z,100582.49
2023-05-04T05:49:03.107Z,100579.73
2023-05-04T05:51:35.956Z,100577.04
2023-05-04T05:54:08.266Z,100574.98
2023-05-04T05:56:40.633Z,100569.35
2023-05-04T05:59:13.622Z,100578.55
2023-05-04T06:01:46.124Z,100577.91
2023-05-04T06:04:18.330Z,100584.58
2023-05-04T06:06:50.937Z,100578.23
2023-05-04T06:09:24.088Z,100576.33
2023-05-04T06:11:56.945Z,100570.06
2023-05-04T06:14:30.759Z,100572.69
2023-05-04T06:17:03.270Z,100574.56
2023-05-04T06:19:39.732Z,100562.83
2023-05-04T06:22:12.911Z,100564.95
2023-05-04T06:24:45.381Z,100554.05
2023-05-04T06:27:18.228Z,100559.78
2023-05-04T06:29:50.425Z,100548.89
2023-05-04T06:32:22.937Z,100545.47
2023-05-04T06:34:56.367Z,100529.55
2023-05-04T06:37:29.242Z,100529.55
2023-05-04T06:40:02.629Z,100534.41
2023-05-04T06:42:34.915Z,100549.80
2023-05-04T06:45:08.113Z,100550.28
2023-05-04T06:47:40.327Z,100543.67
2023-05-04T06:50:13.490Z,100546.70
2023-05-04T06:52:46.769Z,100546.34
2023-05-04T06:55:19.997Z,100544.65
2023-05-04T06:57:53.402Z,100548.20
2023-05-04T07:00:27.744Z,100543.10
2023-05-04T07:03:00.341Z,100547.84
2023-05-04T07:05:37.488Z,100538.80
2023-05-04T07:08:10.379Z,100546.98
2023-05-04T07:10:42.560Z,100541.87
2023-05-04T07:13:16.158Z,100538.20
2023-05-04T07:15:48.686Z,100540.41
2023-05-04T07:18:20.905Z,100534.69
2023-05-04T07:20:58.714Z,100540.98
2023-05-04T07:23:28.132Z,100542.01
2023-05-04T07:26:01.187Z,100535.00
2023-05-04T07:28:34.762Z,100529.72
2023-05-04T07:31:07.240Z,100531.38
2023-05-04T07:33:40.272Z,100533.07
2023-05-04T07:36:12.644Z,100529.56
2023-05-04T07:38:45.825Z,100530.43
2023-05-04T07:41:18.598Z,100530.24
2023-05-04T07:43:51.002Z,100523.27
2023-05-04T07:46:24.023Z,100518.93
2023-05-04T07:48:56.652Z,100515.42
2023-05-04T07:51:29.416Z,100513.41
2023-05-04T07:54:02.174Z,100514.25
2023-05-04T07:56:36.491Z,100515.11
2023-05-04T07:59:08.886Z,100511.37
2023-05-04T08:01:44.012Z,100516.38
2023-05-04T08:04:15.523Z,100505.58
2023-05-04T08:06:49.582Z,100502.77
2023-05-04T08:09:22.200Z,100506.00
2023-05-04T08:11:54.605Z,100508.99
2023-05-04T08:14:27.566Z,100500.63
2023-05-04T08:17:00.975Z,100501.75
2023-05-04T08:19:33.947Z,100498.61
2023-05-04T08:22:06.683Z,100504.19
2023-05-04T08:24:40.175Z,100511.20
2023-05-04T08:27:16.333Z,100508.81
2023-05-04T08:29:50.573Z,100496.80
2023-05-04T08:32:23.937Z,100489.98
2023-05-04T08:34:56.571Z,100486.23
2023-05-04T08:37:29.412Z,100483.25
2023-05-04T08:40:02.022Z,100491.22
2023-05-04T08:42:35.906Z,100483.86
2023-05-04T08:45:10.816Z,100481.22
2023-05-04T08:47:45.307Z,100480.10
2023-05-04T08:50:18.127Z,100473.90
2023-05-04T08:52:50.963Z,100476.55
2023-05-04T08:55:23.522Z,100480.87
2023-05-04T08:57:57.116Z,100484.36
2023-05-04T09:00:31.720Z,100485.53
2023-05-04T09:03:05.337Z,100454.36
2023-05-04T09:05:38.789Z,100474.48
2023-05-04T09:08:11.125Z,100467.81
2023-05-04T09:10:43.902Z,100464.13
2023-05-04T09:13:18.260Z,100464.05
2023-05-04T09:15:58.849Z,100466.22
2023-05-04T09:18:42.471Z,100463.22
2023-05-04T09:21:15.068Z,100452.25
2023-05-04T09:23:54.655Z,100467.37
2023-05-04T09:26:31.852Z,100458.86
2023-05-04T09:29:14.785Z,100460.38
2023-05-04T09:31:51.732Z,100462.56
2023-05-04T09:34:24.589Z,100454.80
2023-05-04T09:37:02.758Z,100462.64
2023-05-04T09:39:35.613Z,100457.36
2023-05-04T09:42:10.599Z,100464.54
2023-05-04T09:44:44.596Z,100457.27
2023-05-04T09:47:18.810Z,100454.31
2023-05-04T09:49:52.479Z,100450.70
2023-05-04T09:52:27.204Z,100449.41
2023-05-04T09:55:00.596Z,100453.55
2023-05-04T09:57:33.599Z,100447.27
2023-05-04T10:00:06.877Z,100443.04
2023-05-04T10:02:40.129Z,100434.16
2023-05-04T10:05:20.581Z,100429.41
2023-05-04T10:07:55.619Z,100422.09
2023-05-04T10:10:28.255Z,100419.74
2023-05-04T10:13:04.225Z,100417.61
2023-05-04T10:15:49.502Z,100401.64
2023-05-04T10:18:33.374Z,100401.64
2023-05-04T10:21:21.890Z,100415.03
2023-05-04T10:24:02.896Z,100421.86
2023-05-04T10:26:53.967Z,100412.20
2023-05-04T10:29:29.017Z,100412.30
2023-05-04T10:32:01.835Z,100412.94
2023-05-04T10:34:35.857Z,100409.13
2023-05-04T10:37:10.921Z,100409.13
2023-05-04T10:39:46.373Z,100403.84
2023-05-04T10:42:18.585Z,100407.22
2023-05-04T10:44:54.672Z,100399.69
2023-05-04T10:47:35.953Z,100406.16
2023-05-04T10:50:12.188Z,100393.55
2023-05-04T10:52:50.317Z,100382.70
2023-05-04T10:55:24.992Z,100389.48
2023-05-04T10:57:58.484Z,100388.63
2023-05-04T11:00:45.065Z,100397.55
2023-05-04T11:03:19.364Z,100386.39
2023-05-04T11:05:52.773Z,100386.39
2023-05-04T11:08:26.262Z,100391.38
2023-05-04T11:11:08.275Z,100386.42
2023-05-04T11:13:47.684Z,100359.39
2023-05-04T11:16:27.520Z,100359.39
2023-05-04T11:19:11.150Z,100376.99
2023-05-04T11:21:43.541Z,100381.44
2023-05-04T11:24:16.250Z,100378.88
2023-05-04T11:26:50.188Z,100362.86
2023-05-04T11:29:22.796Z,100362.86
2023-05-04T11:31:56.706Z,100382.05
2023-05-04T11:34:29.078Z,100382.39
2023-05-04T11:37:03.032Z,100369.03
2023-05-04T11:39:36.720Z,100366.05
2023-05-04T11:42:10.042Z,100359.90
2023-05-04T11:44:43.561Z,100338.48
2023-05-04T11:47:16.471Z,100350.55
2023-05-04T11:49:48.764Z,100350.55
2023-05-04T11:52:25.893Z,100350.13
2023-05-04T11:54:58.844Z,100337.78
2023-05-04T11:57:32.245Z,100341.55
2023-05-04T12:00:07.129Z,100332.12
2023-05-04T12:02:39.596Z,100335.30
2023-05-04T12:05:14.246Z,100337.16
2023-05-04T12:07:46.916Z,100330.30
2023-05-04T12:10:30.013Z,100318.84
2023-05-04T12:13:03.084Z,100314.36
2023-05-04T12:15:37.697Z,100308.23
2023-05-04T12:18:09.020Z,100302.14
2023-05-04T12:20:40.694Z,100320.19
2023-05-04T12:23:13.176Z,100308.64
2023-05-04T12:25:57.396Z,100305.34
2023-05-04T12:28:20.979Z,100308.55
2023-05-04T12:30:54.292Z,100300.98
2023-05-04T12:33:27.028Z,100308.75
2023-05-04T12:36:03.438Z,100294.08
2023-05-04T12:38:36.427Z,100298.45
2023-05-04T12:41:10.568Z,100297.70
2023-05-04T12:43:43.813Z,100277.79
2023-05-04T12:46:17.735Z,100271.57
2023-05-04T12:48:51.005Z,100285.45
2023-05-04T12:51:23.211Z,100286.84
2023-05-04T12:53:58.312Z,100270.67
2023-05-04T12:56:30.927Z,100276.09
2023-05-04T12:59:03.499Z,100269.80
2023-05-04T13:01:36.072Z,100270.66
2023-05-04T13:04:08.357Z,100272.06
2023-05-04T13:06:40.860Z,100265.72
2023-05-04T13:09:13.627Z,100269.52
2023-05-04T13:11:46.208Z,100269.41
2023-05-04T13:14:19.232Z,100270.86
2023-05-04T13:16:54.039Z,100264.33
2023-05-04T13:19:26.235Z,100263.20
2023-05-04T13:21:58.551Z,100265.13
2023-05-04T13:24:31.887Z,100267.94
2023-05-04T13:27:04.369Z,100269.54
2023-05-04T13:29:37.102Z,100271.70
2023-05-04T13:32:09.338Z,100266.33
2023-05-04T13:34:42.093Z,100254.02
2023-05-04T13:37:16.024Z,100248.14
2023-05-04T13:39:48.838Z,100249.75
2023-05-04T13:42:21.356Z,100246.38
2023-05-04T13:44:53.923Z,100241.23
2023-05-04T13:47:26.892Z,100246.29
2023-05-04T13:49:59.634Z,100251.03
2023-05-04T13:52:33.482Z,100244.09
2023-05-04T13:55:06.512Z,100248.86
2023-05-04T13:57:39.010Z,100252.95
2023-05-04T14:00:12.642Z,100243.20
2023-05-04T14:02:45.038Z,100252.80
2023-05-04T14:05:17.758Z,100251.22
2023-05-04T14:07:51.763Z,100253.19
2023-05-04T14:10:24.390Z,100249.70
2023-05-04T14:12:56.857Z,100247.84
2023-05-04T14:15:29.430Z,100245.86
2023-05-04T14:18:02.022Z,100248.31
2023-05-04T14:20:34.218Z,100253.54
2023-05-04T14:23:06.525Z,100252.00
2023-05-04T14:25:38.981Z,100240.16
2023-05-04T14:28:11.466Z,100241.53
2023-05-04T14:30:43.847Z,100240.20
2023-05-04T14:33:16.738Z,100235.27
2023-05-04T14:35:49.101Z,100235.41
2023-05-04T14:38:21.546Z,100237.84
2023-05-04T14:40:55.492Z,100234.02
2023-05-04T14:43:27.735Z,100247.54
2023-05-04T14:46:03.775Z,100239.94
2023-05-04T14:48:35.896Z,100234.00
2023-05-04T14:51:08.255Z,100233.45
2023-05-04T14:53:41.222Z,100229.69
2023-05-04T14:56:13.654Z,100228.97
2023-05-04T14:58:46.511Z,100232.12
2023-05-04T15:01:18.670Z,100218.70
2023-05-04T15:03:51.124Z,100225.97
2023-05-04T15:06:23.391Z,100222.80
2023-05-04T15:08:55.505Z,100228.38
2023-05-04T15:11:27.638Z,100224.25
2023-05-04T15:13:59.953Z,100220.81
2023-05-04T15:16:33.444Z,100226.23
2023-05-04T15:19:05.757Z,100221.35
2023-05-04T15:21:38.412Z,100221.41
2023-05-04T15:24:10.965Z,100217.66
2023-05-04T15:26:43.473Z,100219.31
2023-05-04T15:29:16.205Z,100203.10
2023-05-04T15:31:48.796Z,100205.97
2023-05-04T15:34:21.340Z,100198.98
2023-05-04T15:36:53.693Z,100195.36
2023-05-04T15:39:26.667Z,100197.66
2023-05-04T15:41:59.220Z,100197.66
2023-05-04T15:44:32.351Z,100191.30
2023-05-04T15:47:06.358Z,100191.91
2023-05-04T15:49:38.799Z,100196.36
2023-05-04T15:52:11.744Z,100192.77
2023-05-04T15:54:45.201Z,100195.64
2023-05-04T15:57:17.577Z,100196.61
2023-05-04T15:59:50.089Z,100199.13
2023-05-04T16:02:22.566Z,100197.11
2023-05-04T16:04:54.754Z,100197.72
2023-05-04T16:07:27.349Z,100196.42
2023-05-04T16:09:59.775Z,100201.23
2023-05-04T16:12:33.553Z,100200.27
2023-05-04T16:15:06.116Z,100198.08
2023-05-04T16:17:38.692Z,100199.09
2023-05-04T16:20:12.074Z,100210.69
2023-05-04T16:22:44.479Z,100205.55
2023-05-04T16:25:16.893Z,100182.38
2023-05-04T16:27:50.543Z,100182.38
2023-05-04T16:30:23.184Z,100193.39
2023-05-04T16:32:57.044Z,100195.30
2023-05-04T16:35:31.103Z,100195.52
2023-05-04T16:38:04.168Z,100187.03
2023-05-04T16:40:37.354Z,100182.56
2023-05-04T16:43:10.602Z,100177.27
2023-05-04T16:45:43.207Z,100178.91
2023-05-04T16:48:15.722Z,100160.52
2023-05-04T16:50:48.025Z,100160.52
2023-05-04T16:53:21.093Z,100187.70
2023-05-04T16:55:53.557Z,100181.70
2023-05-04T16:58:26.477Z,100183.45
2023-05-04T17:00:58.623Z,100180.55
2023-05-04T17:03:32.958Z,100193.71
2023-05-04T17:06:05.694Z,100188.25
2023-05-04T17:08:37.937Z,100190.61
2023-05-04T17:11:11.000Z,100184.86
2023-05-04T17:13:43.608Z,100185.26
2023-05-04T17:16:16.024Z,100190.16
2023-05-04T17:18:48.413Z,100188.63
2023-05-04T17:21:20.916Z,100181.53
2023-05-04T17:23:53.345Z,100185.20
2023-05-04T17:26:25.295Z,100189.63
2023-05-04T17:28:57.600Z,100191.70
2023-05-04T17:31:29.914Z,100191.06
2023-05-04T17:34:02.567Z,100191.80
2023-05-04T17:36:35.289Z,100192.75
2023-05-04T17:39:07.682Z,100190.88
2023-05-04T17:41:39.826Z,100191.92
2023-05-04T17:44:12.478Z,100181.54
2023-05-04T17:46:45.196Z,100181.80
2023-05-04T17:49:19.166Z,100180.67
2023-05-04T17:51:51.618Z,100182.19
2023-05-04T17:54:23.951Z,100177.86
2023-05-04T17:56:56.378Z,100174.66
2023-05-04T17:59:28.839Z,100172.02
2023-05-04T18:02:01.535Z,100169.64
2023-05-04T18:04:35.366Z,100168.04
2023-05-04T18:07:07.467Z,100170.03
2023-05-04T18:09:39.618Z,100171.16
2023-05-04T18:12:11.928Z,100161.72
2023-05-04T18:14:44.286Z,100171.80
2023-05-04T18:17:16.415Z,100174.80
2023-05-04T18:19:48.771Z,100170.16
2023-05-04T18:22:21.280Z,100169.02
2023-05-04T18:24:53.336Z,100167.10
2023-05-04T18:27:25.912Z,100168.39
2023-05-04T18:29:58.351Z,100161.42
2023-05-04T18:32:30.866Z,100155.45
2023-05-04T18:35:12.210Z,100157.52
2023-05-04T18:37:44.496Z,100152.62
2023-05-04T18:40:16.812Z,100152.95
2023-05-04T18:42:50.487Z,100147.97
2023-05-04T18:45:22.714Z,100152.45
2023-05-04T18:47:54.992Z,100155.27
2023-05-04T18:50:27.413Z,100161.53
2023-05-04T18:53:00.585Z,100155.43
2023-05-04T18:55:32.838Z,100159.26
2023-05-04T18:58:05.000Z,100161.03
2023-05-04T19:00:37.376Z,100156.05
2023-05-04T19:03:09.925Z,100153.66
2023-05-04T19:05:42.299Z,100160.61
2023-05-04T19:08:14.288Z,100153.90
2023-05-04T19:10:49.857Z,100158.17
2023-05-04T19:13:22.218Z,100153.73
2023-05-04T19:15:54.286Z,100155.34
2023-05-04T19:18:27.029Z,100150.94
2023-05-04T19:20:59.203Z,100151.77
2023-05-04T19:23:31.340Z,100142.08
2023-05-04T19:26:04.370Z,100152.45
2023-05-04T19:28:37.286Z,100148.02
2023-05-04T19:31:10.009Z,100146.41
2023-05-04T19:33:48.320Z,100143.11
2023-05-04T19:36:17.182Z,100144.30
2023-05-04T19:38:49.738Z,100131.41
2023-05-04T19:41:22.618Z,100134.20
2023-05-04T19:43:55.167Z,100141.41
2023-05-04T19:46:28.082Z,100142.63
2023-05-04T19:49:00.675Z,100135.55
2023-05-04T19:51:33.026Z,100143.88
2023-05-04T19:54:05.449Z,100144.91
2023-05-04T19:56:37.719Z,100141.08
2023-05-04T19:59:10.028Z,100143.72
2023-05-04T20:01:42.148Z,100144.66
2023-05-04T20:04:14.557Z,100141.17
2023-05-04T20:06:46.751Z,100142.19
2023-05-04T20:09:19.632Z,100146.88
2023-05-04T20:11:51.804Z,100158.52
2023-05-04T20:14:23.953Z,100157.73
2023-05-04T20:16:56.137Z,100157.06
2023-05-04T20:19:28.370Z,100146.02
2023-05-04T20:22:00.564Z,100163.17
2023-05-04T20:24:32.549Z,100168.78
2023-05-04T20:27:05.159Z,100160.69
2023-05-04T20:29:37.212Z,100160.43
2023-05-04T20:32:10.877Z,100163.52
2023-05-04T20:34:43.982Z,100160.37
2023-05-04T20:37:16.321Z,100161.54
2023-05-04T20:39:48.553Z,100159.09
2023-05-04T20:42:21.872Z,100152.52
2023-05-04T20:44:54.385Z,100170.41
2023-05-04T20:47:26.700Z,100169.80
2023-05-04T20:49:58.889Z,100169.08
2023-05-04T20:52:32.597Z,100168.52
2023-05-04T20:55:04.828Z,100168.84
2023-05-04T20:57:37.176Z,100167.52
2023-05-04T21:00:11.399Z,100159.09
2023-05-04T21:02:43.574Z,100156.71
2023-05-04T21:05:15.737Z,100156.00
2023-05-04T21:07:48.247Z,100161.50
2023-05-04T21:10:21.979Z,100158.95
2023-05-04T21:12:54.344Z,100165.20
2023-05-04T21:15:26.712Z,100159.41
2023-05-04T21:17:59.109Z,100159.00
2023-05-04T21:20:31.549Z,100163.85
2023-05-04T21:23:04.320Z,100168.55
2023-05-04T21:25:37.298Z,100154.31
2023-05-04T21:28:09.607Z,100162.40
2023-05-04T21:30:44.629Z,100159.28
2023-05-04T21:33:17.493Z,100164.98
2023-05-04T21:35:49.719Z,100157.67
2023-05-04T21:38:22.619Z,100165.05
2023-05-04T21:40:54.778Z,100160.86
2023-05-04T21:43:27.138Z,100153.98
2023-05-04T21:45:59.506Z,100158.30
2023-05-04T21:48:31.881Z,100153.85
2023-05-04T21:51:03.977Z,100160.73
2023-05-04T21:53:36.776Z,100157.17
2023-05-04T21:56:10.369Z,100157.05
2023-05-04T21:58:43.491Z,100146.48
2023-05-04T22:01:19.237Z,100148.10
2023-05-04T22:03:53.096Z,100138.44
2023-05-04T22:06:26.531Z,100136.54
2023-05-04T22:08:58.642Z,100144.28
2023-05-04T22:11:31.080Z,100144.11
2023-05-04T22:14:03.200Z,100149.23
2023-05-04T22:16:35.535Z,100144.66
2023-05-04T22:19:07.839Z,100138.59
2023-05-04T22:21:40.055Z,100127.22
2023-05-04T22:24:12.169Z,100121.90
2023-05-04T22:26:44.590Z,100121.11
2023-05-04T22:29:16.872Z,100121.28
2023-05-04T22:31:48.972Z,100130.91
2023-05-04T22:34:22.044Z,100123.97
2023-05-04T22:36:55.026Z,100121.41
2023-05-04T22:39:27.757Z,100119.86
2023-05-04T22:42:01.514Z,100119.86
2023-05-04T22:44:35.318Z,100118.30
2023-05-04T22:47:08.284Z,100119.30
2023-05-04T22:49:41.526Z,100125.68
2023-05-04T22:52:14.456Z,100120.56
2023-05-04T22:54:47.760Z,100127.74
2023-05-04T22:57:20.541Z,100109.44
2023-05-04T22:59:53.343Z,100128.54
2023-05-04T23:02:26.374Z,100129.30
2023-05-04T23:05:00.694Z,100135.31
2023-05-04T23:07:33.719Z,100133.48
2023-05-04T23:10:07.403Z,100135.81
2023-05-04T23:12:40.343Z,100129.59
2023-05-04T23:15:14.211Z,100130.42
2023-05-04T23:17:46.872Z,100119.16
2023-05-04T23:20:19.918Z,100130.49
2023-05-04T23:22:52.639Z,100126.17
2023-05-04T23:25:25.516Z,100122.62
2023-05-04T23:27:58.412Z,100118.30
2023-05-04T23:30:31.187Z,100112.19
2023-05-04T23:33:04.255Z,100113.12
2023-05-04T23:35:36.966Z,100105.31
2023-05-04T23:38:09.886Z,100101.86
2023-05-04T23:40:42.706Z,100101.92
2023-05-04T23:43:15.804Z,100104.69
2023-05-04T23:45:48.966Z,100090.07
2023-05-04T23:48:21.912Z,100091.37
2023-05-04T23:50:57.583Z,100090.08
2023-05-04T23:53:35.463Z,100093.30
2023-05-04T23:56:08.540Z,100094.84
2023-05-04T23:58:42.416Z,100098.11
